Time;durP1;ratioP1;P1;durP2;ratioP2;P2;SDS_P1;SDS_P2;PMS_P1;PMS_P2;Temp;Humidity;BMP_temperature;BMP_pressure;BME280_temperature;BME280_humidity;BME280_pressure;Samples;Min_cycle;Max_cycle;Signal;HPM_P1;HPM_P2
2023/05/31 00:01:47;;;;;;;;;;;;;;;20.24;52.24;100608.47;5380009;32;34008;-73
2023/05/31 00:04:50;;;;;;;;;;;;;;;20.17;52.28;100596.56;5377050;32;33731;-72
2023/05/31 00:07:52;;;;;;;;;;;;;;;20.03;52.71;100607.44;5370468;32;33718;-73
2023/05/31 00:10:54;;;;;;;;;;;;;;;19.47;54.22;100602.63;5386464;32;33754;-74
2023/05/31 00:13:56;;;;;;;;;;;;;;;20.43;51.32;100594.59;5379760;32;34583;-75
2023/05/31 00:16:58;;;;;;;;;;;;;;;19.54;53.68;100610.19;5385252;32;34233;-74
2023/05/31 00:20:03;;;;;;;;;;;;;;;19.32;54.78;100618.84;5387670;32;34089;-74
2023/05/31 00:23:06;;;;;;;;;;;;;;;20.31;52.09;100608.88;5368568;32;33956;-74
2023/05/31 00:26:08;;;;;;;;;;;;;;;20.19;52.06;100615.12;5387680;32;32981;-73
2023/05/31 00:29:10;;;;;;;;;;;;;;;20.21;52.27;100614.03;5348308;32;36751;-74
2023/05/31 00:32:12;;;;;;;;;;;;;;;20.70;50.76;100620.16;5374704;32;32977;-71
2023/05/31 00:35:14;;;;;;;;;;;;;;;20.06;52.04;100617.88;5367708;32;33854;-73
2023/05/31 00:38:16;;;;;;;;;;;;;;;19.50;53.67;100609.53;5384004;32;33620;-74
2023/05/31 00:41:18;;;;;;;;;;;;;;;19.77;53.14;100606.69;5371501;32;34452;-75
2023/05/31 00:44:20;;;;;;;;;;;;;;;19.62;53.34;100616.69;5346591;32;34857;-73
2023/05/31 00:47:23;;;;;;;;;;;;;;;19.88;52.52;100617.41;5374211;32;32751;-72
2023/05/31 00:50:25;;;;;;;;;;;;;;;20.07;51.96;100621.38;5378275;32;34055;-74
2023/05/31 00:53:27;;;;;;;;;;;;;;;19.95;52.57;100615.16;5372690;32;33034;-72
2023/05/31 00:56:29;;;;;;;;;;;;;;;19.26;54.03;100622.84;5341280;32;848700;-73
2023/05/31 00:59:31;;;;;;;;;;;;;;;19.97;52.00;100616.75;5373281;32;34228;-73
2023/05/31 01:02:34;;;;;;;;;;;;;;;19.85;52.10;100612.34;5388778;32;33879;-72
2023/05/31 01:05:36;;;;;;;;;;;;;;;19.66;52.69;100611.97;5376193;32;34379;-73
2023/05/31 01:08:38;;;;;;;;;;;;;;;20.08;51.48;100618.59;5380992;32;33959;-73
2023/05/31 01:12:02;;;;;;;;;;;;;;;19.42;53.19;100619.91;5368099;32;35816;-73
2023/05/31 01:15:10;;;;;;;;;;;;;;;20.02;51.61;100609.22;5366920;32;33780;-73
2023/05/31 01:18:19;;;;;;;;;;;;;;;20.67;49.48;100599.00;5386311;32;44634;-73
2023/05/31 01:21:25;;;;;;;;;;;;;;;20.32;50.09;100601.72;5380440;32;33525;-73
2023/05/31 01:24:46;;;;;;;;;;;;;;;20.27;49.99;100602.06;5367302;32;33195;-71
2023/05/31 01:27:48;;;;;;;;;;;;;;;20.18;50.35;100605.44;5371562;32;43402;-74
2023/05/31 01:30:50;;;;;;;;;;;;;;;19.26;52.24;100614.84;5369164;32;34281;-71
2023/05/31 01:33:52;;;;;;;;;;;;;;;19.39;51.90;100617.47;5383864;32;35393;-72
2023/05/31 01:36:54;;;;;;;;;;;;;;;20.50;49.20;100611.88;5375302;32;34615;-73
2023/05/31 01:39:56;;;;;;;;;;;;;;;19.98;49.98;100610.44;5386109;32;34787;-71
2023/05/31 01:42:58;;;;;;;;;;;;;;;20.53;48.63;100608.94;5360413;32;33533;-71
2023/05/31 01:46:00;;;;;;;;;;;;;;;19.87;50.11;100609.53;5366965;32;33934;-71
2023/05/31 01:49:02;;;;;;;;;;;;;;;20.26;48.58;100606.53;5366882;32;34186;-74
2023/05/31 01:52:09;;;;;;;;;;;;;;;19.33;50.84;100618.78;5383185;32;34317;-70
2023/05/31 01:55:11;;;;;;;;;;;;;;;20.08;48.71;100609.75;5376173;32;43520;-74
2023/05/31 01:58:13;;;;;;;;;;;;;;;19.80;49.51;100609.16;5374819;32;34511;-72
2023/05/31 02:01:18;;;;;;;;;;;;;;;19.68;49.28;100610.03;5387506;32;34127;-72
2023/05/31 02:04:21;;;;;;;;;;;;;;;19.17;50.74;100615.50;5370057;32;34336;-72
2023/05/31 02:07:23;;;;;;;;;;;;;;;19.61;49.50;100608.78;5374435;32;33651;-74
2023/05/31 02:10:25;;;;;;;;;;;;;;;19.18;50.56;100612.72;5364754;32;32625;-73
2023/05/31 02:13:27;;;;;;;;;;;;;;;19.94;48.60;100613.44;5368276;32;35319;-72
2023/05/31 02:16:29;;;;;;;;;;;;;;;20.27;47.35;100615.41;5368903;32;33891;-74
2023/05/31 02:19:31;;;;;;;;;;;;;;;19.46;49.30;100622.25;5378263;32;34750;-72
2023/05/31 02:22:33;;;;;;;;;;;;;;;19.85;48.41;100611.47;5374860;32;33768;-73
2023/05/31 02:25:35;;;;;;;;;;;;;;;19.69;48.86;100622.41;5367729;32;33575;-74
2023/05/31 02:28:37;;;;;;;;;;;;;;;19.87;48.52;100622.88;5359449;32;33195;-74
2023/05/31 02:31:39;;;;;;;;;;;;;;;19.23;50.44;100628.38;5358835;32;33985;-73
2023/05/31 02:34:42;;;;;;;;;;;;;;;19.87;48.58;100621.06;5372950;32;45527;-73
2023/05/31 02:37:45;;;;;;;;;;;;;;;19.45;49.28;100635.69;5362220;32;34497;-72
2023/05/31 02:40:47;;;;;;;;;;;;;;;19.21;50.04;100628.50;5361607;32;33010;-74
2023/05/31 02:43:49;;;;;;;;;;;;;;;19.19;50.22;100634.88;5353678;32;33751;-71
2023/05/31 02:46:51;;;;;;;;;;;;;;;20.02;48.07;100625.25;5376105;32;33518;-74
2023/05/31 02:49:53;;;;;;;;;;;;;;;20.04;48.09;100626.97;5385733;32;33694;-73
2023/05/31 02:52:55;;;;;;;;;;;;;;;20.00;48.00;100629.84;5363336;32;33114;-73
2023/05/31 02:55:57;;;;;;;;;;;;;;;19.88;48.29;100628.09;5379394;32;34064;-74
2023/05/31 02:58:59;;;;;;;;;;;;;;;19.71;48.73;100624.03;5390917;32;34130;-73
2023/05/31 03:02:01;;;;;;;;;;;;;;;19.98;48.07;100629.12;5382835;32;33298;-73
2023/05/31 03:05:04;;;;;;;;;;;;;;;19.96;47.93;100630.19;5384604;32;33736;-73
2023/05/31 03:08:07;;;;;;;;;;;;;;;19.46;48.88;100634.72;5381671;32;32300;-74
2023/05/31 03:11:09;;;;;;;;;;;;;;;19.25;49.24;100642.44;5371839;32;33639;-73
2023/05/31 03:14:11;;;;;;;;;;;;;;;19.65;48.65;100645.81;5378125;32;44777;-71
2023/05/31 03:17:13;;;;;;;;;;;;;;;19.29;49.18;100646.59;5377754;32;33164;-74
2023/05/31 03:20:15;;;;;;;;;;;;;;;19.74;48.19;100628.25;5371311;32;33910;-72
2023/05/31 03:23:17;;;;;;;;;;;;;;;19.19;49.36;100648.19;5377617;32;33922;-72
2023/05/31 03:26:19;;;;;;;;;;;;;;;19.34;49.36;100649.78;5375684;32;33848;-73
2023/05/31 03:29:22;;;;;;;;;;;;;;;19.72;48.48;100646.19;5361739;32;33128;-71
2023/05/31 03:32:24;;;;;;;;;;;;;;;19.80;47.89;100641.16;5362219;32;33298;-72
2023/05/31 03:35:26;;;;;;;;;;;;;;;19.46;48.97;100653.38;5388806;32;33823;-73
2023/05/31 03:38:31;;;;;;;;;;;;;;;19.65;48.20;100652.94;5378066;32;33614;-73
2023/05/31 03:41:33;;;;;;;;;;;;;;;19.93;47.64;100647.28;5379383;32;37361;-73
2023/05/31 03:44:35;;;;;;;;;;;;;;;19.13;49.46;100646.84;5356112;32;33722;-73
2023/05/31 03:47:37;;;;;;;;;;;;;;;19.99;47.42;100654.84;5396259;32;34252;-73
2023/05/31 03:50:40;;;;;;;;;;;;;;;19.86;47.61;100653.19;5387858;32;34178;-71
2023/05/31 03:53:42;;;;;;;;;;;;;;;19.83;47.54;100656.06;5387152;32;44745;-74
2023/05/31 03:56:44;;;;;;;;;;;;;;;20.31;46.44;100651.56;5381856;32;34486;-74
2023/05/31 03:59:46;;;;;;;;;;;;;;;19.93;47.14;100651.75;5368700;32;33210;-73
2023/05/31 04:02:48;;;;;;;;;;;;;;;20.20;46.78;100652.38;5378227;32;36741;-73
2023/05/31 04:06:04;;;;;;;;;;;;;;;20.54;45.75;100650.72;5378326;32;34350;-71
2023/05/31 04:09:06;;;;;;;;;;;;;;;20.74;45.32;100651.84;5390168;32;34352;-74
2023/05/31 04:12:09;;;;;;;;;;;;;;;20.52;45.42;100657.97;5378270;32;33670;-71
2023/05/31 04:15:11;;;;;;;;;;;;;;;20.63;45.56;100667.00;5379427;32;43916;-73
2023/05/31 04:18:13;;;;;;;;;;;;;;;20.63;45.23;100664.31;5367121;32;35189;-74
2023/05/31 04:21:15;;;;;;;;;;;;;;;20.82;44.72;100673.47;5381896;32;34716;-74
2023/05/31 04:24:17;;;;;;;;;;;;;;;20.53;45.11;100677.50;5391676;32;33540;-72
2023/05/31 04:27:19;;;;;;;;;;;;;;;20.09;46.28;100671.00;5379605;32;33795;-72
2023/05/31 04:30:23;;;;;;;;;;;;;;;20.12;46.02;100672.59;5355151;32;34440;-72
2023/05/31 04:33:29;;;;;;;;;;;;;;;21.03;43.75;100672.75;5377691;32;35908;-71
2023/05/31 04:36:36;;;;;;;;;;;;;;;20.29;45.60;100678.38;5381583;32;33501;-74
2023/05/31 04:39:38;;;;;;;;;;;;;;;21.04;44.14;100679.81;5381685;32;33708;-73
2023/05/31 04:42:40;;;;;;;;;;;;;;;20.91;44.45;100676.38;5363132;32;33662;-71
2023/05/31 04:45:42;;;;;;;;;;;;;;;20.87;44.22;100681.13;5387663;32;34618;-69
2023/05/31 04:48:48;;;;;;;;;;;;;;;20.25;45.98;100684.91;5365616;32;33255;-74
2023/05/31 04:51:50;;;;;;;;;;;;;;;21.44;43.43;100685.56;5370888;32;34226;-72
2023/05/31 04:54:53;;;;;;;;;;;;;;;21.89;42.57;100680.97;5371059;32;35002;-73
2023/05/31 04:57:55;;;;;;;;;;;;;;;22.30;41.53;100683.94;5367217;32;33568;-72
2023/05/31 05:00:57;;;;;;;;;;;;;;;22.38;41.57;100685.00;5393532;32;33581;-72
2023/05/31 05:04:00;;;;;;;;;;;;;;;21.74;42.50;100692.94;5380241;32;33982;-74
2023/05/31 05:07:02;;;;;;;;;;;;;;;21.68;42.78;100693.44;5373953;32;34630;-75
2023/05/31 05:10:04;;;;;;;;;;;;;;;21.27;43.43;100700.25;5378420;32;33677;-74
2023/05/31 05:13:06;;;;;;;;;;;;;;;21.53;43.02;100698.22;5386803;32;33863;-74
2023/05/31 05:16:08;;;;;;;;;;;;;;;22.61;40.47;100695.63;5366109;32;34072;-74
2023/05/31 05:19:10;;;;;;;;;;;;;;;23.00;39.78;100691.37;5383694;32;43475;-74
2023/05/31 05:22:13;;;;;;;;;;;;;;;22.43;40.93;100689.97;5391170;32;36474;-72
2023/05/31 05:25:15;;;;;;;;;;;;;;;22.45;40.33;100693.38;5380074;32;35424;-73
2023/05/31 05:28:17;;;;;;;;;;;;;;;22.83;39.53;100687.44;5376106;32;33962;-74
2023/05/31 05:31:19;;;;;;;;;;;;;;;22.46;40.19;100683.50;5371277;32;33216;-73
2023/05/31 05:34:21;;;;;;;;;;;;;;;22.61;39.96;100693.78;5388330;32;36017;-74
2023/05/31 05:37:23;;;;;;;;;;;;;;;22.49;39.98;100692.13;5365565;32;34250;-75
2023/05/31 05:40:26;;;;;;;;;;;;;;;21.57;41.89;100701.47;5370788;32;35456;-78
2023/05/31 05:43:30;;;;;;;;;;;;;;;21.79;42.09;100705.97;5347768;32;33177;-73
2023/05/31 05:46:31;;;;;;;;;;;;;;;21.23;42.80;100700.59;5362242;32;33502;-77
2023/05/31 05:49:34;;;;;;;;;;;;;;;21.70;42.08;100699.50;5389111;32;34965;-76
2023/05/31 05:52:36;;;;;;;;;;;;;;;21.97;41.79;100701.78;5364601;32;33533;-74
2023/05/31 05:55:38;;;;;;;;;;;;;;;21.36;42.95;100712.91;5384986;32;33004;-82
2023/05/31 05:58:40;;;;;;;;;;;;;;;21.57;42.68;100710.34;5362036;32;37121;-70
2023/05/31 06:01:45;;;;;;;;;;;;;;;21.62;42.76;100713.50;5377637;32;33702;-70
2023/05/31 06:04:49;;;;;;;;;;;;;;;21.59;42.73;100705.75;5381904;32;33790;-89
2023/05/31 06:07:52;;;;;;;;;;;;;;;21.77;42.32;100707.91;5363659;32;34433;-68
2023/05/31 06:10:54;;;;;;;;;;;;;;;22.01;41.81;100707.72;5379820;32;33098;-75
2023/05/31 06:13:57;;;;;;;;;;;;;;;22.79;40.17;100712.78;5362576;32;33463;-74
2023/05/31 06:16:59;;;;;;;;;;;;;;;23.14;40.04;100711.63;5372752;32;33419;-73
2023/05/31 06:20:05;;;;;;;;;;;;;;;23.37;39.26;100718.50;5387436;32;32922;-67
2023/05/31 06:23:07;;;;;;;;;;;;;;;23.19;39.75;100717.47;5369886;32;34217;-78
2023/05/31 06:26:12;;;;;;;;;;;;;;;23.94;38.14;100718.87;5379169;32;33187;-74
2023/05/31 06:29:14;;;;;;;;;;;;;;;24.47;37.36;100713.16;5362647;32;45127;-73
2023/05/31 06:32:17;;;;;;;;;;;;;;;23.95;38.18;100723.25;5388118;32;34197;-76
2023/05/31 06:35:19;;;;;;;;;;;;;;;25.59;35.08;100707.00;5376071;32;33483;-72
2023/05/31 06:38:21;;;;;;;;;;;;;;;24.89;36.55;100712.84;5386917;32;32972;-72
2023/05/31 06:41:24;;;;;;;;;;;;;;;25.27;35.36;100723.53;5384172;32;34420;-75
2023/05/31 06:44:26;;;;;;;;;;;;;;;25.62;35.14;100713.91;5346525;32;35952;-79
2023/05/31 06:47:28;;;;;;;;;;;;;;;25.50;35.22;100710.56;5383014;32;33188;-71
2023/05/31 06:50:30;;;;;;;;;;;;;;;26.07;33.82;100711.25;5375281;32;33003;-76
2023/05/31 06:53:32;;;;;;;;;;;;;;;25.97;33.83;100715.03;5390880;32;33495;-72
2023/05/31 06:56:36;;;;;;;;;;;;;;;26.81;32.41;100710.12;5377743;32;36083;-72
2023/05/31 06:59:38;;;;;;;;;;;;;;;26.41;33.68;100708.78;5381708;32;32996;-65
2023/05/31 07:02:43;;;;;;;;;;;;;;;28.23;30.64;100713.19;5376304;32;44928;-76
2023/05/31 07:05:46;;;;;;;;;;;;;;;25.29;35.14;100718.84;5383889;32;34652;-73
2023/05/31 07:08:48;;;;;;;;;;;;;;;26.40;34.00;100715.16;5385035;32;32948;-75
2023/05/31 07:11:53;;;;;;;;;;;;;;;28.03;31.44;100721.59;5380459;32;33203;-71
2023/05/31 07:14:55;;;;;;;;;;;;;;;27.92;31.44;100724.59;5392440;32;34348;-74
2023/05/31 07:17:57;;;;;;;;;;;;;;;29.00;29.96;100711.91;5379657;32;34618;-75
2023/05/31 07:20:59;;;;;;;;;;;;;;;30.64;27.45;100707.38;5379824;32;33019;-72
2023/05/31 07:24:04;;;;;;;;;;;;;;;30.16;27.89;100711.31;5394296;32;33546;-76
2023/05/31 07:27:07;;;;;;;;;;;;;;;29.88;28.42;100711.78;5387094;32;33906;-71
2023/05/31 07:30:09;;;;;;;;;;;;;;;29.43;26.98;100712.44;5366398;32;33479;-66
2023/05/31 07:33:16;;;;;;;;;;;;;;;28.91;27.64;100712.88;5386085;32;44967;-72
2023/05/31 07:36:30;;;;;;;;;;;;;;;29.91;25.66;100707.87;5379540;32;33193;-83
2023/05/31 07:39:37;;;;;;;;;;;;;;;28.89;26.90;100709.50;5378534;32;33411;-77
2023/05/31 07:42:39;;;;;;;;;;;;;;;28.60;26.81;100713.59;5357963;32;32960;-80
2023/05/31 07:45:42;;;;;;;;;;;;;;;29.18;26.34;100710.84;5379955;32;44544;-78
2023/05/31 07:48:45;;;;;;;;;;;;;;;29.79;25.87;100702.00;5368880;32;36481;-70
2023/05/31 07:51:47;;;;;;;;;;;;;;;29.52;26.09;100699.78;5391435;32;32928;-70
2023/05/31 07:54:50;;;;;;;;;;;;;;;30.18;25.12;100707.41;5380123;32;34901;-76
2023/05/31 07:57:56;;;;;;;;;;;;;;;31.52;23.74;100703.97;5381038;32;34028;-73
2023/05/31 08:01:02;;;;;;;;;;;;;;;30.86;24.68;100703.00;5385463;32;34300;-70
2023/05/31 08:04:10;;;;;;;;;;;;;;;30.77;24.65;100703.22;5382357;32;32974;-72
2023/05/31 08:07:13;;;;;;;;;;;;;;;30.77;24.50;100705.94;5391872;32;45558;-77
2023/05/31 08:10:16;;;;;;;;;;;;;;;29.75;25.47;100711.50;5366387;32;33251;-75
2023/05/31 08:13:20;;;;;;;;;;;;;;;32.55;22.69;100704.75;5369861;32;34350;-76
2023/05/31 08:16:22;;;;;;;;;;;;;;;30.35;24.69;100712.72;5378175;32;35560;-72
2023/05/31 08:19:24;;;;;;;;;;;;;;;31.76;23.57;100707.41;5391179;32;34477;-74
2023/05/31 08:22:26;;;;;;;;;;;;;;;33.56;21.27;100702.56;5394597;32;33137;-79
2023/05/31 08:25:30;;;;;;;;;;;;;;;33.90;20.84;100702.50;5386955;32;33017;-78
2023/05/31 08:28:33;;;;;;;;;;;;;;;31.89;22.83;100713.03;5383279;32;33526;-70
2023/05/31 08:31:36;;;;;;;;;;;;;;;32.85;21.76;100705.44;5365894;32;34556;-75
2023/05/31 08:34:39;;;;;;;;;;;;;;;33.16;21.39;100705.03;5390672;32;34707;-75
2023/05/31 08:37:50;;;;;;;;;;;;;;;31.93;22.62;100708.88;5381304;32;34657;-75
2023/05/31 08:40:52;;;;;;;;;;;;;;;32.35;22.40;100707.28;5383287;32;34796;-78
2023/05/31 08:43:55;;;;;;;;;;;;;;;32.34;22.30;100702.91;5375753;32;33108;-79
2023/05/31 08:47:05;;;;;;;;;;;;;;;31.50;23.78;100708.75;5385805;32;34335;-79
2023/05/31 08:50:07;;;;;;;;;;;;;;;33.54;21.18;100691.03;5382759;32;34558;-73
2023/05/31 08:53:09;;;;;;;;;;;;;;;32.79;22.03;100707.06;5365082;32;32425;-79
2023/05/31 08:56:14;;;;;;;;;;;;;;;32.70;22.51;100697.34;5379418;32;44888;-71
2023/05/31 08:59:18;;;;;;;;;;;;;;;32.39;22.58;100705.84;5368448;32;36001;-70
2023/05/31 09:02:22;;;;;;;;;;;;;;;32.53;22.72;100695.97;5381911;32;33388;-70
2023/05/31 09:05:24;;;;;;;;;;;;;;;31.85;23.19;100700.03;5381878;32;33188;-74
2023/05/31 09:08:33;;;;;;;;;;;;;;;31.02;24.13;100696.53;5386026;32;33315;-83
2023/05/31 09:11:40;;;;;;;;;;;;;;;31.33;24.01;100693.69;5342625;32;34767;-78
2023/05/31 09:14:42;;;;;;;;;;;;;;;32.96;21.96;100688.56;5378992;32;43360;-70
2023/05/31 09:17:45;;;;;;;;;;;;;;;31.49;23.92;100689.91;5387422;32;33258;-71
2023/05/31 09:20:48;;;;;;;;;;;;;;;33.19;22.05;100685.56;5389080;32;32910;-84
2023/05/31 09:23:54;;;;;;;;;;;;;;;34.75;20.35;100675.56;5367070;32;32500;-75
2023/05/31 09:26:56;;;;;;;;;;;;;;;34.18;21.06;100679.72;5372617;32;33065;-73
2023/05/31 09:29:58;;;;;;;;;;;;;;;32.92;22.41;100692.75;5346899;32;33698;-71
2023/05/31 09:33:03;;;;;;;;;;;;;;;33.51;21.81;100675.94;5384790;32;33026;-77
2023/05/31 09:36:05;;;;;;;;;;;;;;;33.64;21.88;100683.31;5377677;32;32896;-75
2023/05/31 09:39:11;;;;;;;;;;;;;;;33.28;21.87;100676.19;5354847;32;43420;-85
2023/05/31 09:42:13;;;;;;;;;;;;;;;34.10;21.23;100667.13;5375717;32;34751;-86
2023/05/31 09:45:19;;;;;;;;;;;;;;;33.94;21.40;100668.34;5369464;32;33216;-72
2023/05/31 09:48:23;;;;;;;;;;;;;;;32.78;22.62;100670.00;5373731;32;33190;-76
2023/05/31 09:51:28;;;;;;;;;;;;;;;32.75;22.55;100664.94;5378937;32;33194;-70
2023/05/31 09:54:30;;;;;;;;;;;;;;;33.62;21.63;100659.00;5380559;32;33823;-91
2023/05/31 09:57:40;;;;;;;;;;;;;;;34.44;20.62;100668.84;5369579;32;32877;-70
2023/05/31 10:00:46;;;;;;;;;;;;;;;34.64;20.61;100671.59;5354901;32;42753;-72
2023/05/31 10:03:49;;;;;;;;;;;;;;;32.78;22.07;100671.84;5380837;32;34233;-81
2023/05/31 10:06:51;;;;;;;;;;;;;;;36.56;18.06;100656.31;5364315;32;33059;-75
2023/05/31 10:09:53;;;;;;;;;;;;;;;34.16;20.97;100652.66;5376394;32;33274;-73
2023/05/31 10:12:58;;;;;;;;;;;;;;;35.79;19.29;100653.66;5377739;32;37130;-78
2023/05/31 10:16:05;;;;;;;;;;;;;;;33.89;20.87;100664.53;5385669;32;32871;-72
2023/05/31 10:19:08;;;;;;;;;;;;;;;34.70;20.21;100659.81;5367742;32;32229;-72
2023/05/31 10:22:12;;;;;;;;;;;;;;;36.07;18.68;100649.75;5354850;32;44834;-82
2023/05/31 10:25:20;;;;;;;;;;;;;;;35.89;19.22;100641.41;5379025;32;34969;-82
2023/05/31 10:28:25;;;;;;;;;;;;;;;33.04;22.33;100653.03;5375065;32;35718;-78
2023/05/31 10:31:29;;;;;;;;;;;;;;;32.54;23.02;100652.22;5375274;32;34304;-73
2023/05/31 10:34:33;;;;;;;;;;;;;;;34.58;20.27;100647.84;5372047;32;33145;-74
2023/05/31 10:37:41;;;;;;;;;;;;;;;34.26;20.74;100644.03;5376789;32;33038;-74
2023/05/31 10:40:52;;;;;;;;;;;;;;;34.06;21.32;100640.47;5354695;32;44655;-73
2023/05/31 10:44:01;;;;;;;;;;;;;;;33.05;22.20;100645.69;5361430;32;33867;-74
2023/05/31 10:47:04;;;;;;;;;;;;;;;34.45;21.00;100634.22;5375861;32;34924;-77
2023/05/31 10:50:07;;;;;;;;;;;;;;;33.24;21.54;100639.53;5370466;32;33309;-80
2023/05/31 10:53:10;;;;;;;;;;;;;;;34.36;20.63;100649.09;5376410;32;33121;-79
2023/05/31 10:56:13;;;;;;;;;;;;;;;34.92;19.68;100635.06;5386151;32;44559;-77
2023/05/31 10:59:16;;;;;;;;;;;;;;;33.36;21.15;100635.19;5352953;32;35008;-79
2023/05/31 11:02:19;;;;;;;;;;;;;;;36.21;18.18;100636.81;5391716;32;35108;-68
2023/05/31 11:05:22;;;;;;;;;;;;;;;35.63;18.80;100634.19;5365471;32;33482;-80
2023/05/31 11:08:24;;;;;;;;;;;;;;;35.96;18.08;100629.41;5389993;32;33253;-78
2023/05/31 11:11:33;;;;;;;;;;;;;;;33.65;20.76;100633.22;5369162;32;33950;-76
2023/05/31 11:14:35;;;;;;;;;;;;;;;35.86;18.22;100629.00;5375641;32;33130;-75
2023/05/31 11:17:41;;;;;;;;;;;;;;;34.46;19.56;100636.75;5383928;32;35184;-77
2023/05/31 11:20:43;;;;;;;;;;;;;;;37.29;16.73;100617.22;5371267;32;34794;-77
2023/05/31 11:23:53;;;;;;;;;;;;;;;34.85;19.53;100609.63;5369272;32;34203;-80
2023/05/31 11:27:01;;;;;;;;;;;;;;;34.05;19.74;100620.53;5380119;32;32894;-74
2023/05/31 11:30:06;;;;;;;;;;;;;;;34.03;20.02;100610.91;5352937;32;34682;-74
2023/05/31 11:33:15;;;;;;;;;;;;;;;32.49;21.63;100610.31;5385939;32;33270;-80
2023/05/31 11:36:17;;;;;;;;;;;;;;;33.17;21.29;100608.69;5366263;32;43818;-81
2023/05/31 11:39:22;;;;;;;;;;;;;;;34.84;19.49;100600.56;5391594;32;34567;-81
2023/05/31 11:42:23;;;;;;;;;;;;;;;33.73;20.70;100608.50;5374241;32;33722;-76
2023/05/31 11:45:26;;;;;;;;;;;;;;;31.35;22.83;100606.59;5360534;32;33092;-76
2023/05/31 11:48:37;;;;;;;;;;;;;;;30.77;23.80;100603.69;5341737;32;33262;-78
2023/05/31 11:51:45;;;;;;;;;;;;;;;30.16;23.80;100601.03;5358607;32;44432;-77
2023/05/31 11:54:48;;;;;;;;;;;;;;;30.11;23.31;100608.84;5384210;32;35744;-74
2023/05/31 11:57:53;;;;;;;;;;;;;;;30.17;22.71;100600.00;5374600;32;32995;-78
2023/05/31 12:00:59;;;;;;;;;;;;;;;30.23;24.01;100603.00;5344128;32;33237;-82
2023/05/31 12:04:02;;;;;;;;;;;;;;;31.42;23.16;100600.19;5349169;32;36110;-73
2023/05/31 12:07:05;;;;;;;;;;;;;;;30.21;25.23;100592.34;5362311;32;32841;-83
2023/05/31 12:10:09;;;;;;;;;;;;;;;31.24;24.08;100595.19;5376895;32;34433;-75
2023/05/31 12:13:12;;;;;;;;;;;;;;;30.73;24.48;100596.97;5360771;32;44515;-88
2023/05/31 12:16:14;;;;;;;;;;;;;;;29.84;25.55;100593.97;5369817;32;33008;-82
2023/05/31 12:19:17;;;;;;;;;;;;;;;29.14;25.79;100594.81;5359950;32;33330;-70
2023/05/31 12:22:19;;;;;;;;;;;;;;;28.22;27.06;100603.41;5363947;32;33071;-77
2023/05/31 12:25:21;;;;;;;;;;;;;;;29.23;25.89;100598.31;5383295;32;34917;-69
2023/05/31 12:28:24;;;;;;;;;;;;;;;28.73;26.98;100602.19;5377385;32;34555;-75
2023/05/31 12:31:33;;;;;;;;;;;;;;;28.74;26.51;100590.38;5379934;32;34300;-74
2023/05/31 12:34:37;;;;;;;;;;;;;;;29.02;26.68;100588.09;5370817;32;35031;-76
2023/05/31 12:37:39;;;;;;;;;;;;;;;30.43;24.72;100575.19;5387106;32;32951;-72
2023/05/31 12:40:42;;;;;;;;;;;;;;;29.17;26.12;100579.25;5364590;32;44712;-77
2023/05/31 12:43:53;;;;;;;;;;;;;;;30.39;23.45;100568.44;5373888;32;33223;-85
2023/05/31 12:47:02;;;;;;;;;;;;;;;30.17;23.84;100567.47;5385347;32;33492;-86
2023/05/31 12:50:07;;;;;;;;;;;;;;;29.27;25.27;100571.75;5377523;32;32747;-83
2023/05/31 12:53:09;;;;;;;;;;;;;;;29.41;24.64;100571.00;5381699;32;33027;-71
2023/05/31 12:56:12;;;;;;;;;;;;;;;28.66;25.51;100562.47;5370169;32;44743;-75
2023/05/31 12:59:20;;;;;;;;;;;;;;;29.27;25.07;100561.78;5387341;32;34121;-81
2023/05/31 13:02:22;;;;;;;;;;;;;;;28.37;26.33;100563.91;5380644;32;33082;-76
2023/05/31 13:05:28;;;;;;;;;;;;;;;29.18;24.90;100562.00;5385749;32;33470;-77
2023/05/31 13:08:30;;;;;;;;;;;;;;;29.51;24.44;100559.97;5388353;32;33109;-72
2023/05/31 13:11:36;;;;;;;;;;;;;;;27.90;26.23;100556.47;5388029;32;34161;-79
2023/05/31 13:14:38;;;;;;;;;;;;;;;28.80;25.36;100549.09;5385927;32;33332;-77
2023/05/31 13:17:40;;;;;;;;;;;;;;;29.00;25.54;100549.56;5378766;32;44630;-69
2023/05/31 13:20:42;;;;;;;;;;;;;;;29.83;24.13;100539.97;5382051;32;32934;-78
2023/05/31 13:23:47;;;;;;;;;;;;;;;29.84;24.53;100542.47;5384137;32;33037;-76
2023/05/31 13:26:49;;;;;;;;;;;;;;;29.52;24.44;100529.19;5384767;32;32937;-85
2023/05/31 13:29:51;;;;;;;;;;;;;;;30.07;23.36;100526.19;5365632;32;34609;-71
2023/05/31 13:32:53;;;;;;;;;;;;;;;30.05;23.29;100522.81;5377316;32;34707;-77
2023/05/31 13:35:56;;;;;;;;;;;;;;;29.59;23.55;100522.88;5391103;32;33652;-79
2023/05/31 13:38:59;;;;;;;;;;;;;;;29.49;24.02;100527.63;5382961;32;33140;-78
2023/05/31 13:42:07;;;;;;;;;;;;;;;29.94;23.00;100528.66;5390496;32;32805;-74
2023/05/31 13:45:13;;;;;;;;;;;;;;;29.82;22.93;100522.00;5387171;32;45028;-76
2023/05/31 13:48:16;;;;;;;;;;;;;;;30.89;21.08;100514.53;5382342;32;34851;-77
2023/05/31 13:51:18;;;;;;;;;;;;;;;30.29;21.59;100512.81;5391843;32;33144;-78
2023/05/31 13:54:20;;;;;;;;;;;;;;;29.35;22.49;100509.44;5382622;32;33510;-79
2023/05/31 13:57:23;;;;;;;;;;;;;;;28.95;23.08;100511.34;5379262;32;32856;-81
2023/05/31 14:00:25;;;;;;;;;;;;;;;29.71;22.36;100506.19;5390352;32;33259;-73
2023/05/31 14:03:29;;;;;;;;;;;;;;;28.78;24.42;100507.00;5384013;32;34251;-83
2023/05/31 14:06:37;;;;;;;;;;;;;;;30.02;22.94;100503.41;5387472;32;32967;-72
2023/05/31 14:09:40;;;;;;;;;;;;;;;29.30;23.97;100492.91;5379511;32;33881;-80
2023/05/31 14:12:42;;;;;;;;;;;;;;;29.45;24.25;100499.25;5364758;32;45998;-81
2023/05/31 14:15:44;;;;;;;;;;;;;;;29.30;24.36;100492.91;5381136;32;34147;-73
2023/05/31 14:18:48;;;;;;;;;;;;;;;29.12;24.56;100488.63;5382151;32;35116;-74
2023/05/31 14:21:51;;;;;;;;;;;;;;;28.45;25.46;100498.16;5377812;32;34085;-75
2023/05/31 14:24:53;;;;;;;;;;;;;;;28.88;25.24;100488.72;5383262;32;33720;-74
2023/05/31 14:27:55;;;;;;;;;;;;;;;29.38;24.70;100482.88;5382134;32;33806;-75
2023/05/31 14:30:59;;;;;;;;;;;;;;;29.03;24.83;100486.97;5373973;32;33690;-75
2023/05/31 14:34:02;;;;;;;;;;;;;;;29.91;24.11;100485.69;5377522;32;33710;-76
2023/05/31 14:37:05;;;;;;;;;;;;;;;28.86;24.92;100490.75;5370748;32;35998;-75
2023/05/31 14:40:16;;;;;;;;;;;;;;;29.67;24.42;100484.87;5370733;32;45778;-75
2023/05/31 14:43:18;;;;;;;;;;;;;;;28.95;24.94;100497.84;5369299;32;34646;-73
2023/05/31 14:46:20;;;;;;;;;;;;;;;28.59;25.42;100492.88;5376550;32;33551;-75
2023/05/31 14:49:23;;;;;;;;;;;;;;;28.82;25.21;100492.13;5374332;32;34215;-75
2023/05/31 14:52:25;;;;;;;;;;;;;;;28.87;25.39;100489.72;5375114;32;34496;-74
2023/05/31 14:55:27;;;;;;;;;;;;;;;28.31;26.00;100478.94;5383119;32;33920;-74
2023/05/31 14:58:29;;;;;;;;;;;;;;;28.16;26.05;100483.34;5366427;32;32940;-74
2023/05/31 15:01:32;;;;;;;;;;;;;;;28.70;25.65;100483.53;5385564;32;34366;-75
2023/05/31 15:04:34;;;;;;;;;;;;;;;28.64;25.04;100494.22;5387209;32;31913;-74
2023/05/31 15:07:36;;;;;;;;;;;;;;;28.28;25.29;100489.22;5377999;32;33557;-72
2023/05/31 15:10:38;;;;;;;;;;;;;;;28.79;24.66;100481.66;5374688;32;34279;-75
2023/05/31 15:13:40;;;;;;;;;;;;;;;28.74;24.21;100486.75;5363404;32;44668;-74
2023/05/31 15:16:42;;;;;;;;;;;;;;;27.93;25.59;100495.84;5385570;32;34086;-74
2023/05/31 15:19:44;;;;;;;;;;;;;;;27.61;26.40;100492.09;5379444;32;33641;-72
2023/05/31 15:22:47;;;;;;;;;;;;;;;28.22;25.36;100479.09;5388638;32;33936;-72
2023/05/31 15:25:49;;;;;;;;;;;;;;;29.02;24.25;100490.69;5388810;32;35947;-70
2023/05/31 15:28:51;;;;;;;;;;;;;;;28.66;24.39;100481.34;5368572;32;33839;-72
2023/05/31 15:31:56;;;;;;;;;;;;;;;28.67;24.28;100475.78;5377883;32;34228;-76
2023/05/31 15:34:58;;;;;;;;;;;;;;;28.81;23.91;100485.03;5380976;32;33404;-73
2023/05/31 15:38:00;;;;;;;;;;;;;;;28.60;23.93;100475.66;5388747;32;33807;-71
2023/05/31 15:41:02;;;;;;;;;;;;;;;29.48;23.21;100473.66;5377821;32;34287;-75